sensor_id;sensor_type;location;lat;lon;timestamp;P1;durP1;ratioP1;P2;durP2;ratioP2
19623;SDS011;9959;49.798;9.928;2023-02-22T00:02:00;45.22;;;18.75;;
19623;SDS011;9959;49.798;9.928;2023-02-22T00:04:36;39.53;;;18.88;;
19623;SDS011;9959;49.798;9.928;2023-02-22T00:07:05;35.28;;;18.13;;
19623;SDS011;9959;49.798;9.928;2023-02-22T00:09:32;36.47;;;19.13;;
19623;SDS011;9959;49.798;9.928;2023-02-22T00:11:59;41.03;;;18.83;;
19623;SDS011;9959;49.798;9.928;2023-02-22T00:14:26;35.83;;;17.75;;
19623;SDS011;9959;49.798;9.928;2023-02-22T00:16:54;38.53;;;18.33;;
19623;SDS011;9959;49.798;9.928;2023-02-22T00:19:25;46.83;;;19.50;;
19623;SDS011;9959;49.798;9.928;2023-02-22T00:21:56;40.08;;;19.33;;
19623;SDS011;9959;49.798;9.928;2023-02-22T00:24:23;40.47;;;18.52;;
19623;SDS011;9959;49.798;9.928;2023-02-22T00:26:51;38.67;;;18.58;;
19623;SDS011;9959;49.798;9.928;2023-02-22T00:29:21;36.30;;;18.00;;
19623;SDS011;9959;49.798;9.928;2023-02-22T00:31:53;30.27;;;16.40;;
19623;SDS011;9959;49.798;9.928;2023-02-22T00:34:20;42.67;;;17.55;;
19623;SDS011;9959;49.798;9.928;2023-02-22T00:36:48;37.22;;;17.25;;
19623;SDS011;9959;49.798;9.928;2023-02-22T00:39:15;38.78;;;17.27;;
19623;SDS011;9959;49.798;9.928;2023-02-22T00:41:43;33.95;;;18.10;;
19623;SDS011;9959;49.798;9.928;2023-02-22T00:44:10;40.40;;;17.63;;
19623;SDS011;9959;49.798;9.928;2023-02-22T00:46:37;34.13;;;17.35;;
19623;SDS011;9959;49.798;9.928;2023-02-22T00:49:04;40.45;;;19.40;;
19623;SDS011;9959;49.798;9.928;2023-02-22T00:51:31;38.30;;;17.30;;
19623;SDS011;9959;49.798;9.928;2023-02-22T00:53:59;31.83;;;17.50;;
19623;SDS011;9959;49.798;9.928;2023-02-22T00:56:26;36.03;;;18.08;;
19623;SDS011;9959;49.798;9.928;2023-02-22T00:58:53;36.53;;;18.27;;
19623;SDS011;9959;49.798;9.928;2023-02-22T01:01:20;49.45;;;19.92;;
19623;SDS011;9959;49.798;9.928;2023-02-22T01:03:47;68.80;;;22.45;;
19623;SDS011;9959;49.798;9.928;2023-02-22T01:06:14;111.43;;;26.80;;
19623;SDS011;9959;49.798;9.928;2023-02-22T01:08:44;105.30;;;25.33;;
19623;SDS011;9959;49.798;9.928;2023-02-22T01:11:12;108.10;;;24.85;;
19623;SDS011;9959;49.798;9.928;2023-02-22T01:13:41;109.50;;;26.30;;
19623;SDS011;9959;49.798;9.928;2023-02-22T01:16:14;117.47;;;26.65;;
19623;SDS011;9959;49.798;9.928;2023-02-22T01:18:43;125.32;;;27.83;;
19623;SDS011;9959;49.798;9.928;2023-02-22T01:21:10;157.25;;;28.50;;
19623;SDS011;9959;49.798;9.928;2023-02-22T01:23:37;131.32;;;27.42;;
19623;SDS011;9959;49.798;9.928;2023-02-22T01:26:04;119.32;;;27.92;;
19623;SDS011;9959;49.798;9.928;2023-02-22T01:28:31;117.05;;;26.70;;
19623;SDS011;9959;49.798;9.928;2023-02-22T01:30:59;130.15;;;27.17;;
19623;SDS011;9959;49.798;9.928;2023-02-22T01:33:33;137.05;;;26.42;;
19623;SDS011;9959;49.798;9.928;2023-02-22T01:36:00;188.05;;;28.45;;
19623;SDS011;9959;49.798;9.928;2023-02-22T01:38:27;180.15;;;27.05;;
19623;SDS011;9959;49.798;9.928;2023-02-22T01:40:54;147.18;;;27.95;;
19623;SDS011;9959;49.798;9.928;2023-02-22T01:43:27;123.30;;;27.38;;
19623;SDS011;9959;49.798;9.928;2023-02-22T01:46:03;111.25;;;24.73;;
19623;SDS011;9959;49.798;9.928;2023-02-22T01:48:48;131.27;;;26.40;;
19623;SDS011;9959;49.798;9.928;2023-02-22T01:51:21;125.82;;;24.83;;
19623;SDS011;9959;49.798;9.928;2023-02-22T01:54:05;129.23;;;24.10;;
19623;SDS011;9959;49.798;9.928;2023-02-22T01:56:47;101.07;;;23.98;;
19623;SDS011;9959;49.798;9.928;2023-02-22T01:59:19;98.25;;;25.42;;
19623;SDS011;9959;49.798;9.928;2023-02-22T02:01:54;127.45;;;26.00;;
19623;SDS011;9959;49.798;9.928;2023-02-22T02:04:21;94.50;;;24.80;;
19623;SDS011;9959;49.798;9.928;2023-02-22T02:06:51;111.00;;;24.77;;
19623;SDS011;9959;49.798;9.928;2023-02-22T02:09:35;157.27;;;27.23;;
19623;SDS011;9959;49.798;9.928;2023-02-22T02:12:06;137.63;;;23.80;;
19623;SDS011;9959;49.798;9.928;2023-02-22T02:14:36;138.48;;;24.80;;
19623;SDS011;9959;49.798;9.928;2023-02-22T02:17:06;93.00;;;24.17;;
19623;SDS011;9959;49.798;9.928;2023-02-22T02:19:46;130.10;;;23.95;;
19623;SDS011;9959;49.798;9.928;2023-02-22T02:22:45;117.63;;;24.75;;
19623;SDS011;9959;49.798;9.928;2023-02-22T02:28:25;159.63;;;25.63;;
19623;SDS011;9959;49.798;9.928;2023-02-22T02:41:08;148.85;;;23.88;;
19623;SDS011;9959;49.798;9.928;2023-02-22T02:49:10;128.13;;;22.75;;
19623;SDS011;9959;49.798;9.928;2023-02-22T02:51:43;189.95;;;24.70;;
19623;SDS011;9959;49.798;9.928;2023-02-22T02:54:17;155.95;;;24.25;;
19623;SDS011;9959;49.798;9.928;2023-02-22T02:56:44;119.07;;;23.27;;
19623;SDS011;9959;49.798;9.928;2023-02-22T03:01:52;154.43;;;24.45;;
19623;SDS011;9959;49.798;9.928;2023-02-22T03:07:17;131.38;;;23.58;;
19623;SDS011;9959;49.798;9.928;2023-02-22T03:14:49;139.77;;;24.60;;
19623;SDS011;9959;49.798;9.928;2023-02-22T03:20:20;160.98;;;25.40;;
19623;SDS011;9959;49.798;9.928;2023-02-22T03:22:50;96.63;;;23.38;;
19623;SDS011;9959;49.798;9.928;2023-02-22T03:25:36;152.05;;;24.75;;
19623;SDS011;9959;49.798;9.928;2023-02-22T03:28:09;176.52;;;24.70;;
19623;SDS011;9959;49.798;9.928;2023-02-22T03:30:41;211.30;;;25.30;;
19623;SDS011;9959;49.798;9.928;2023-02-22T03:35:49;187.48;;;25.00;;
19623;SDS011;9959;49.798;9.928;2023-02-22T03:38:23;175.98;;;23.73;;
19623;SDS011;9959;49.798;9.928;2023-02-22T03:40:58;115.20;;;23.25;;
19623;SDS011;9959;49.798;9.928;2023-02-22T03:43:31;218.38;;;24.67;;
19623;SDS011;9959;49.798;9.928;2023-02-22T03:46:03;239.95;;;26.75;;
19623;SDS011;9959;49.798;9.928;2023-02-22T03:51:12;180.15;;;23.65;;
19623;SDS011;9959;49.798;9.928;2023-02-22T03:53:42;214.00;;;24.95;;
19623;SDS011;9959;49.798;9.928;2023-02-22T03:58:47;188.93;;;23.40;;
19623;SDS011;9959;49.798;9.928;2023-02-22T04:01:16;207.02;;;25.60;;
19623;SDS011;9959;49.798;9.928;2023-02-22T04:03:49;213.15;;;25.73;;
19623;SDS011;9959;49.798;9.928;2023-02-22T04:06:17;128.95;;;22.98;;
19623;SDS011;9959;49.798;9.928;2023-02-22T04:08:43;171.80;;;25.95;;
19623;SDS011;9959;49.798;9.928;2023-02-22T04:11:16;152.88;;;24.20;;
19623;SDS011;9959;49.798;9.928;2023-02-22T04:13:49;213.60;;;25.25;;
19623;SDS011;9959;49.798;9.928;2023-02-22T04:16:15;226.70;;;26.88;;
19623;SDS011;9959;49.798;9.928;2023-02-22T04:18:46;143.77;;;23.73;;
19623;SDS011;9959;49.798;9.928;2023-02-22T04:23:49;124.10;;;24.80;;
19623;SDS011;9959;49.798;9.928;2023-02-22T04:26:16;166.30;;;23.88;;
19623;SDS011;9959;49.798;9.928;2023-02-22T04:28:43;97.97;;;23.00;;
19623;SDS011;9959;49.798;9.928;2023-02-22T04:31:10;113.90;;;22.63;;
19623;SDS011;9959;49.798;9.928;2023-02-22T04:33:37;162.15;;;23.63;;
19623;SDS011;9959;49.798;9.928;2023-02-22T04:36:03;122.32;;;22.50;;
19623;SDS011;9959;49.798;9.928;2023-02-22T04:40:59;109.70;;;23.85;;
19623;SDS011;9959;49.798;9.928;2023-02-22T04:43:25;147.73;;;23.52;;
19623;SDS011;9959;49.798;9.928;2023-02-22T04:45:55;129.98;;;23.85;;
19623;SDS011;9959;49.798;9.928;2023-02-22T04:48:22;154.23;;;24.35;;
19623;SDS011;9959;49.798;9.928;2023-02-22T04:50:52;146.07;;;24.17;;
19623;SDS011;9959;49.798;9.928;2023-02-22T04:53:19;84.22;;;23.95;;
19623;SDS011;9959;49.798;9.928;2023-02-22T04:55:46;140.30;;;26.80;;
19623;SDS011;9959;49.798;9.928;2023-02-22T04:58:19;144.35;;;26.08;;
19623;SDS011;9959;49.798;9.928;2023-02-22T05:00:46;135.70;;;25.85;;
19623;SDS011;9959;49.798;9.928;2023-02-22T05:03:16;137.07;;;23.55;;
19623;SDS011;9959;49.798;9.928;2023-02-22T05:05:42;163.40;;;25.48;;
19623;SDS011;9959;49.798;9.928;2023-02-22T05:08:09;168.48;;;28.08;;
19623;SDS011;9959;49.798;9.928;2023-02-22T05:10:36;141.75;;;26.55;;
19623;SDS011;9959;49.798;9.928;2023-02-22T05:13:03;126.90;;;26.38;;
19623;SDS011;9959;49.798;9.928;2023-02-22T05:15:31;174.45;;;24.45;;
19623;SDS011;9959;49.798;9.928;2023-02-22T05:17:58;195.63;;;27.95;;
19623;SDS011;9959;49.798;9.928;2023-02-22T05:20:27;188.05;;;25.48;;
19623;SDS011;9959;49.798;9.928;2023-02-22T05:23:01;169.35;;;26.23;;
19623;SDS011;9959;49.798;9.928;2023-02-22T05:25:29;117.60;;;25.10;;
19623;SDS011;9959;49.798;9.928;2023-02-22T05:27:57;107.95;;;24.42;;
19623;SDS011;9959;49.798;9.928;2023-02-22T05:30:27;254.63;;;26.58;;
19623;SDS011;9959;49.798;9.928;2023-02-22T05:32:56;178.25;;;24.92;;
19623;SDS011;9959;49.798;9.928;2023-02-22T05:35:28;179.52;;;25.58;;
19623;SDS011;9959;49.798;9.928;2023-02-22T05:37:57;200.95;;;25.40;;
19623;SDS011;9959;49.798;9.928;2023-02-22T05:40:27;111.57;;;24.98;;
19623;SDS011;9959;49.798;9.928;2023-02-22T05:42:55;147.95;;;25.02;;
19623;SDS011;9959;49.798;9.928;2023-02-22T05:45:24;210.23;;;29.08;;
19623;SDS011;9959;49.798;9.928;2023-02-22T05:47:53;127.75;;;26.92;;
19623;SDS011;9959;49.798;9.928;2023-02-22T05:50:24;150.88;;;26.08;;
19623;SDS011;9959;49.798;9.928;2023-02-22T05:52:54;160.70;;;27.42;;
19623;SDS011;9959;49.798;9.928;2023-02-22T05:55:22;169.27;;;26.30;;
19623;SDS011;9959;49.798;9.928;2023-02-22T05:57:49;145.25;;;25.73;;
19623;SDS011;9959;49.798;9.928;2023-02-22T06:02:46;149.20;;;25.75;;
19623;SDS011;9959;49.798;9.928;2023-02-22T06:05:13;144.23;;;26.80;;
19623;SDS011;9959;49.798;9.928;2023-02-22T06:07:40;143.88;;;26.33;;
19623;SDS011;9959;49.798;9.928;2023-02-22T06:10:07;146.57;;;26.75;;
19623;SDS011;9959;49.798;9.928;2023-02-22T06:12:39;202.65;;;26.45;;
19623;SDS011;9959;49.798;9.928;2023-02-22T06:15:07;164.57;;;27.10;;
19623;SDS011;9959;49.798;9.928;2023-02-22T06:17:34;220.57;;;27.60;;
19623;SDS011;9959;49.798;9.928;2023-02-22T06:20:02;196.10;;;26.60;;
19623;SDS011;9959;49.798;9.928;2023-02-22T06:22:29;135.32;;;25.65;;
19623;SDS011;9959;49.798;9.928;2023-02-22T06:25:00;158.10;;;26.50;;
19623;SDS011;9959;49.798;9.928;2023-02-22T06:27:31;158.82;;;25.38;;
19623;SDS011;9959;49.798;9.928;2023-02-22T06:29:59;175.00;;;25.65;;
19623;SDS011;9959;49.798;9.928;2023-02-22T06:32:28;129.23;;;26.45;;
19623;SDS011;9959;49.798;9.928;2023-02-22T06:34:55;135.23;;;25.00;;
19623;SDS011;9959;49.798;9.928;2023-02-22T06:37:22;157.85;;;26.23;;
19623;SDS011;9959;49.798;9.928;2023-02-22T06:39:48;146.57;;;25.23;;
19623;SDS011;9959;49.798;9.928;2023-02-22T06:42:15;133.90;;;24.58;;
19623;SDS011;9959;49.798;9.928;2023-02-22T06:44:42;128.63;;;24.05;;
19623;SDS011;9959;49.798;9.928;2023-02-22T06:47:14;143.20;;;23.75;;
19623;SDS011;9959;49.798;9.928;2023-02-22T06:49:41;100.30;;;23.98;;
19623;SDS011;9959;49.798;9.928;2023-02-22T06:52:08;116.82;;;21.50;;
19623;SDS011;9959;49.798;9.928;2023-02-22T06:54:36;139.70;;;23.08;;
19623;SDS011;9959;49.798;9.928;2023-02-22T06:57:05;84.68;;;20.23;;
19623;SDS011;9959;49.798;9.928;2023-02-22T06:59:33;65.45;;;20.67;;
19623;SDS011;9959;49.798;9.928;2023-02-22T07:02:00;119.90;;;19.60;;
19623;SDS011;9959;49.798;9.928;2023-02-22T07:04:29;81.78;;;19.88;;
19623;SDS011;9959;49.798;9.928;2023-02-22T07:06:56;83.97;;;20.00;;
19623;SDS011;9959;49.798;9.928;2023-02-22T07:09:23;74.18;;;20.13;;
19623;SDS011;9959;49.798;9.928;2023-02-22T07:11:50;62.63;;;19.65;;
19623;SDS011;9959;49.798;9.928;2023-02-22T07:14:17;95.88;;;19.27;;
19623;SDS011;9959;49.798;9.928;2023-02-22T07:16:44;118.03;;;19.80;;
19623;SDS011;9959;49.798;9.928;2023-02-22T07:19:10;94.80;;;20.13;;
19623;SDS011;9959;49.798;9.928;2023-02-22T07:21:37;54.70;;;18.67;;
19623;SDS011;9959;49.798;9.928;2023-02-22T07:24:07;79.93;;;19.30;;
19623;SDS011;9959;49.798;9.928;2023-02-22T07:26:40;71.85;;;19.23;;
19623;SDS011;9959;49.798;9.928;2023-02-22T07:29:07;89.93;;;19.65;;
19623;SDS011;9959;49.798;9.928;2023-02-22T07:31:37;92.03;;;19.65;;
19623;SDS011;9959;49.798;9.928;2023-02-22T07:34:04;154.95;;;23.73;;
19623;SDS011;9959;49.798;9.928;2023-02-22T07:36:32;65.55;;;21.85;;
19623;SDS011;9959;49.798;9.928;2023-02-22T07:39:00;67.32;;;19.35;;
19623;SDS011;9959;49.798;9.928;2023-02-22T07:41:27;59.83;;;19.77;;
19623;SDS011;9959;49.798;9.928;2023-02-22T07:43:54;63.35;;;18.45;;
19623;SDS011;9959;49.798;9.928;2023-02-22T07:46:21;77.63;;;19.77;;
19623;SDS011;9959;49.798;9.928;2023-02-22T07:48:48;49.25;;;19.27;;
19623;SDS011;9959;49.798;9.928;2023-02-22T07:51:15;82.65;;;20.88;;
19623;SDS011;9959;49.798;9.928;2023-02-22T07:53:43;70.40;;;20.23;;
19623;SDS011;9959;49.798;9.928;2023-02-22T07:56:10;62.88;;;21.55;;
19623;SDS011;9959;49.798;9.928;2023-02-22T07:58:37;61.58;;;20.73;;
19623;SDS011;9959;49.798;9.928;2023-02-22T08:01:04;85.40;;;20.50;;
19623;SDS011;9959;49.798;9.928;2023-02-22T08:03:32;56.05;;;20.13;;
19623;SDS011;9959;49.798;9.928;2023-02-22T08:06:02;59.83;;;19.70;;
19623;SDS011;9959;49.798;9.928;2023-02-22T08:08:30;48.67;;;19.10;;
19623;SDS011;9959;49.798;9.928;2023-02-22T08:10:57;104.38;;;22.58;;
19623;SDS011;9959;49.798;9.928;2023-02-22T08:13:24;52.17;;;18.45;;
19623;SDS011;9959;49.798;9.928;2023-02-22T08:15:51;47.95;;;19.85;;
19623;SDS011;9959;49.798;9.928;2023-02-22T08:18:19;46.25;;;18.80;;
19623;SDS011;9959;49.798;9.928;2023-02-22T08:20:47;41.90;;;17.95;;
19623;SDS011;9959;49.798;9.928;2023-02-22T08:23:17;44.28;;;18.70;;
19623;SDS011;9959;49.798;9.928;2023-02-22T08:25:46;41.47;;;16.60;;
19623;SDS011;9959;49.798;9.928;2023-02-22T08:28:13;50.67;;;19.10;;
19623;SDS011;9959;49.798;9.928;2023-02-22T08:30:42;42.13;;;18.10;;
19623;SDS011;9959;49.798;9.928;2023-02-22T08:33:10;38.35;;;17.67;;
19623;SDS011;9959;49.798;9.928;2023-02-22T08:35:43;35.88;;;16.58;;
19623;SDS011;9959;49.798;9.928;2023-02-22T08:38:15;37.60;;;17.45;;
19623;SDS011;9959;49.798;9.928;2023-02-22T08:40:43;39.22;;;17.10;;
19623;SDS011;9959;49.798;9.928;2023-02-22T08:43:10;31.75;;;15.20;;
19623;SDS011;9959;49.798;9.928;2023-02-22T08:45:39;37.28;;;16.42;;
19623;SDS011;9959;49.798;9.928;2023-02-22T08:48:06;32.13;;;15.82;;
19623;SDS011;9959;49.798;9.928;2023-02-22T08:50:33;36.05;;;17.00;;
19623;SDS011;9959;49.798;9.928;2023-02-22T08:53:01;39.20;;;17.02;;
19623;SDS011;9959;49.798;9.928;2023-02-22T08:55:34;32.45;;;16.58;;
19623;SDS011;9959;49.798;9.928;2023-02-22T08:58:02;41.78;;;16.73;;
19623;SDS011;9959;49.798;9.928;2023-02-22T09:00:31;29.38;;;15.82;;
19623;SDS011;9959;49.798;9.928;2023-02-22T09:02:59;36.15;;;16.67;;
19623;SDS011;9959;49.798;9.928;2023-02-22T09:05:27;30.85;;;15.15;;
19623;SDS011;9959;49.798;9.928;2023-02-22T09:07:57;33.08;;;16.40;;
19623;SDS011;9959;49.798;9.928;2023-02-22T09:10:26;32.17;;;16.30;;
19623;SDS011;9959;49.798;9.928;2023-02-22T09:12:54;31.52;;;16.02;;
19623;SDS011;9959;49.798;9.928;2023-02-22T09:15:22;35.95;;;17.50;;
19623;SDS011;9959;49.798;9.928;2023-02-22T09:17:50;37.08;;;17.30;;
19623;SDS011;9959;49.798;9.928;2023-02-22T09:20:18;33.20;;;16.08;;
19623;SDS011;9959;49.798;9.928;2023-02-22T09:22:46;35.63;;;16.77;;
19623;SDS011;9959;49.798;9.928;2023-02-22T09:25:14;32.08;;;15.13;;
19623;SDS011;9959;49.798;9.928;2023-02-22T09:27:45;31.88;;;15.10;;
19623;SDS011;9959;49.798;9.928;2023-02-22T09:32:46;29.00;;;14.68;;
19623;SDS011;9959;49.798;9.928;2023-02-22T09:35:13;33.55;;;15.93;;
19623;SDS011;9959;49.798;9.928;2023-02-22T09:37:39;31.98;;;16.15;;
19623;SDS011;9959;49.798;9.928;2023-02-22T09:40:14;30.85;;;15.18;;
19623;SDS011;9959;49.798;9.928;2023-02-22T09:42:46;28.80;;;15.10;;
19623;SDS011;9959;49.798;9.928;2023-02-22T09:45:31;32.88;;;15.25;;
19623;SDS011;9959;49.798;9.928;2023-02-22T09:48:05;30.90;;;14.82;;
19623;SDS011;9959;49.798;9.928;2023-02-22T09:50:44;30.38;;;15.27;;
19623;SDS011;9959;49.798;9.928;2023-02-22T09:55:45;33.08;;;17.58;;
19623;SDS011;9959;49.798;9.928;2023-02-22T10:00:45;34.15;;;15.35;;
19623;SDS011;9959;49.798;9.928;2023-02-22T10:05:53;29.05;;;15.77;;
19623;SDS011;9959;49.798;9.928;2023-02-22T10:08:29;31.05;;;16.60;;
19623;SDS011;9959;49.798;9.928;2023-02-22T10:13:54;29.27;;;15.88;;
19623;SDS011;9959;49.798;9.928;2023-02-22T10:16:56;29.27;;;16.42;;
19623;SDS011;9959;49.798;9.928;2023-02-22T10:19:35;30.02;;;16.60;;
19623;SDS011;9959;49.798;9.928;2023-02-22T10:22:16;29.45;;;15.60;;
19623;SDS011;9959;49.798;9.928;2023-02-22T10:24:52;29.05;;;15.65;;
19623;SDS011;9959;49.798;9.928;2023-02-22T10:27:31;33.17;;;16.77;;
19623;SDS011;9959;49.798;9.928;2023-02-22T10:35:46;26.25;;;15.57;;
19623;SDS011;9959;49.798;9.928;2023-02-22T10:38:18;29.42;;;15.13;;
19623;SDS011;9959;49.798;9.928;2023-02-22T10:40:53;30.38;;;16.08;;
19623;SDS011;9959;49.798;9.928;2023-02-22T10:43:24;26.17;;;14.90;;
19623;SDS011;9959;49.798;9.928;2023-02-22T10:45:52;28.38;;;15.32;;
19623;SDS011;9959;49.798;9.928;2023-02-22T10:48:23;23.40;;;14.10;;
19623;SDS011;9959;49.798;9.928;2023-02-22T10:50:57;22.58;;;14.00;;
19623;SDS011;9959;49.798;9.928;2023-02-22T10:53:28;24.33;;;14.57;;
19623;SDS011;9959;49.798;9.928;2023-02-22T10:56:11;23.30;;;13.10;;
19623;SDS011;9959;49.798;9.928;2023-02-22T11:01:27;22.80;;;12.30;;
19623;SDS011;9959;49.798;9.928;2023-02-22T11:06:33;19.60;;;12.88;;
19623;SDS011;9959;49.798;9.928;2023-02-22T11:11:49;18.65;;;12.70;;
19623;SDS011;9959;49.798;9.928;2023-02-22T11:14:33;17.58;;;12.88;;
19623;SDS011;9959;49.798;9.928;2023-02-22T11:17:00;20.45;;;12.55;;
19623;SDS011;9959;49.798;9.928;2023-02-22T11:19:33;22.33;;;12.02;;
19623;SDS011;9959;49.798;9.928;2023-02-22T11:24:30;19.08;;;12.48;;
19623;SDS011;9959;49.798;9.928;2023-02-22T11:29:46;16.92;;;11.27;;
19623;SDS011;9959;49.798;9.928;2023-02-22T11:32:17;17.63;;;11.85;;
19623;SDS011;9959;49.798;9.928;2023-02-22T11:34:47;18.40;;;12.27;;
19623;SDS011;9959;49.798;9.928;2023-02-22T11:37:34;19.02;;;13.32;;
19623;SDS011;9959;49.798;9.928;2023-02-22T11:40:04;19.10;;;11.77;;
19623;SDS011;9959;49.798;9.928;2023-02-22T11:42:37;17.77;;;11.15;;
19623;SDS011;9959;49.798;9.928;2023-02-22T11:45:09;21.23;;;12.32;;
19623;SDS011;9959;49.798;9.928;2023-02-22T11:47:50;17.85;;;11.52;;
19623;SDS011;9959;49.798;9.928;2023-02-22T11:52:46;14.55;;;10.98;;
19623;SDS011;9959;49.798;9.928;2023-02-22T11:58:04;20.02;;;10.82;;
19623;SDS011;9959;49.798;9.928;2023-02-22T12:03:54;17.25;;;9.75;;
19623;SDS011;9959;49.798;9.928;2023-02-22T12:06:58;12.93;;;9.43;;
19623;SDS011;9959;49.798;9.928;2023-02-22T12:20:51;16.38;;;11.73;;
19623;SDS011;9959;49.798;9.928;2023-02-22T12:28:46;13.07;;;9.10;;
19623;SDS011;9959;49.798;9.928;2023-02-22T12:31:41;14.20;;;9.20;;
19623;SDS011;9959;49.798;9.928;2023-02-22T12:34:23;13.75;;;9.38;;
19623;SDS011;9959;49.798;9.928;2023-02-22T12:36:47;15.48;;;8.63;;
19623;SDS011;9959;49.798;9.928;2023-02-22T12:42:17;15.63;;;8.98;;
19623;SDS011;9959;49.798;9.928;2023-02-22T12:44:51;13.13;;;9.32;;
19623;SDS011;9959;49.798;9.928;2023-02-22T12:47:24;12.48;;;8.88;;
19623;SDS011;9959;49.798;9.928;2023-02-22T12:49:58;24.85;;;10.30;;
19623;SDS011;9959;49.798;9.928;2023-02-22T12:55:00;12.35;;;8.10;;
19623;SDS011;9959;49.798;9.928;2023-02-22T12:57:48;11.93;;;8.15;;
19623;SDS011;9959;49.798;9.928;2023-02-22T13:05:48;11.35;;;8.90;;
19623;SDS011;9959;49.798;9.928;2023-02-22T13:17:00;16.60;;;10.90;;
19623;SDS011;9959;49.798;9.928;2023-02-22T13:19:32;16.80;;;10.20;;
19623;SDS011;9959;49.798;9.928;2023-02-22T13:22:06;11.77;;;8.93;;
19623;SDS011;9959;49.798;9.928;2023-02-22T13:24:48;16.92;;;9.10;;
19623;SDS011;9959;49.798;9.928;2023-02-22T13:30:19;36.47;;;10.77;;
19623;SDS011;9959;49.798;9.928;2023-02-22T13:41:38;13.55;;;8.80;;
19623;SDS011;9959;49.798;9.928;2023-02-22T13:52:40;14.38;;;8.75;;
19623;SDS011;9959;49.798;9.928;2023-02-22T13:55:17;14.80;;;8.88;;
19623;SDS011;9959;49.798;9.928;2023-02-22T13:57:46;52.35;;;10.30;;
19623;SDS011;9959;49.798;9.928;2023-02-22T14:00:19;12.38;;;8.65;;
19623;SDS011;9959;49.798;9.928;2023-02-22T14:05:47;13.75;;;8.13;;
19623;SDS011;9959;49.798;9.928;2023-02-22T14:13:18;12.77;;;8.32;;
19623;SDS011;9959;49.798;9.928;2023-02-22T14:21:12;13.20;;;8.32;;
19623;SDS011;9959;49.798;9.928;2023-02-22T14:31:17;9.88;;;7.70;;
19623;SDS011;9959;49.798;9.928;2023-02-22T14:34:05;13.73;;;7.85;;
19623;SDS011;9959;49.798;9.928;2023-02-22T14:41:59;13.60;;;8.45;;
19623;SDS011;9959;49.798;9.928;2023-02-22T14:44:51;25.30;;;8.55;;
19623;SDS011;9959;49.798;9.928;2023-02-22T14:47:27;13.77;;;8.15;;
19623;SDS011;9959;49.798;9.928;2023-02-22T14:49:56;14.07;;;7.68;;
19623;SDS011;9959;49.798;9.928;2023-02-22T14:52:34;15.73;;;8.13;;
19623;SDS011;9959;49.798;9.928;2023-02-22T14:55:15;16.52;;;8.60;;
19623;SDS011;9959;49.798;9.928;2023-02-22T14:57:56;19.17;;;7.90;;
19623;SDS011;9959;49.798;9.928;2023-02-22T15:00:36;21.73;;;9.00;;
19623;SDS011;9959;49.798;9.928;2023-02-22T15:03:27;14.35;;;9.02;;
19623;SDS011;9959;49.798;9.928;2023-02-22T15:11:54;25.02;;;9.32;;
19623;SDS011;9959;49.798;9.928;2023-02-22T15:14:46;16.25;;;8.98;;
19623;SDS011;9959;49.798;9.928;2023-02-22T15:20:07;17.50;;;8.80;;
19623;SDS011;9959;49.798;9.928;2023-02-22T15:22:37;16.83;;;8.70;;
19623;SDS011;9959;49.798;9.928;2023-02-22T15:25:05;22.48;;;9.75;;
19623;SDS011;9959;49.798;9.928;2023-02-22T15:27:34;18.80;;;9.75;;
19623;SDS011;9959;49.798;9.928;2023-02-22T15:30:07;17.85;;;9.20;;
19623;SDS011;9959;49.798;9.928;2023-02-22T15:32:55;18.08;;;9.32;;
19623;SDS011;9959;49.798;9.928;2023-02-22T15:35:30;15.70;;;9.77;;
19623;SDS011;9959;49.798;9.928;2023-02-22T15:38:06;21.08;;;10.02;;
19623;SDS011;9959;49.798;9.928;2023-02-22T15:40:36;25.95;;;10.63;;
19623;SDS011;9959;49.798;9.928;2023-02-22T15:43:16;17.38;;;9.68;;
19623;SDS011;9959;49.798;9.928;2023-02-22T15:45:47;18.27;;;9.95;;
19623;SDS011;9959;49.798;9.928;2023-02-22T15:48:16;23.10;;;9.55;;
19623;SDS011;9959;49.798;9.928;2023-02-22T15:54:08;21.63;;;9.57;;
19623;SDS011;9959;49.798;9.928;2023-02-22T15:56:28;18.30;;;9.32;;
19623;SDS011;9959;49.798;9.928;2023-02-22T15:59:00;18.30;;;9.55;;
19623;SDS011;9959;49.798;9.928;2023-02-22T16:01:42;19.70;;;9.70;;
19623;SDS011;9959;49.798;9.928;2023-02-22T16:07:06;22.98;;;10.25;;
19623;SDS011;9959;49.798;9.928;2023-02-22T16:09:46;22.33;;;10.05;;
19623;SDS011;9959;49.798;9.928;2023-02-22T16:14:48;20.70;;;10.30;;
19623;SDS011;9959;49.798;9.928;2023-02-22T16:17:26;21.60;;;10.85;;
19623;SDS011;9959;49.798;9.928;2023-02-22T16:20:29;23.75;;;10.85;;
19623;SDS011;9959;49.798;9.928;2023-02-22T16:22:56;23.95;;;11.20;;
19623;SDS011;9959;49.798;9.928;2023-02-22T16:25:25;23.95;;;11.77;;
19623;SDS011;9959;49.798;9.928;2023-02-22T16:27:56;18.67;;;11.48;;
19623;SDS011;9959;49.798;9.928;2023-02-22T16:30:36;22.52;;;11.27;;
19623;SDS011;9959;49.798;9.928;2023-02-22T16:33:07;28.70;;;11.77;;
19623;SDS011;9959;49.798;9.928;2023-02-22T16:35:41;19.05;;;10.57;;
19623;SDS011;9959;49.798;9.928;2023-02-22T16:38:17;24.30;;;11.93;;
19623;SDS011;9959;49.798;9.928;2023-02-22T16:40:52;24.70;;;11.63;;
19623;SDS011;9959;49.798;9.928;2023-02-22T16:43:21;19.48;;;11.75;;
19623;SDS011;9959;49.798;9.928;2023-02-22T16:45:57;21.85;;;11.63;;
19623;SDS011;9959;49.798;9.928;2023-02-22T16:48:34;17.65;;;11.02;;
19623;SDS011;9959;49.798;9.928;2023-02-22T16:51:20;26.02;;;11.95;;
19623;SDS011;9959;49.798;9.928;2023-02-22T16:53:52;25.33;;;12.65;;
19623;SDS011;9959;49.798;9.928;2023-02-22T16:56:28;26.52;;;12.52;;
19623;SDS011;9959;49.798;9.928;2023-02-22T16:58:56;25.02;;;13.18;;
19623;SDS011;9959;49.798;9.928;2023-02-22T17:01:27;21.60;;;12.20;;
19623;SDS011;9959;49.798;9.928;2023-02-22T17:03:57;25.17;;;12.38;;
19623;SDS011;9959;49.798;9.928;2023-02-22T17:06:24;21.33;;;12.90;;
19623;SDS011;9959;49.798;9.928;2023-02-22T17:08:51;20.17;;;12.25;;
19623;SDS011;9959;49.798;9.928;2023-02-22T17:11:18;19.75;;;12.23;;
19623;SDS011;9959;49.798;9.928;2023-02-22T17:13:48;24.33;;;12.55;;
19623;SDS011;9959;49.798;9.928;2023-02-22T17:16:17;21.63;;;12.82;;
19623;SDS011;9959;49.798;9.928;2023-02-22T17:18:44;24.02;;;13.07;;
19623;SDS011;9959;49.798;9.928;2023-02-22T17:21:12;24.65;;;12.43;;
19623;SDS011;9959;49.798;9.928;2023-02-22T17:23:39;25.13;;;13.48;;
19623;SDS011;9959;49.798;9.928;2023-02-22T17:26:06;25.83;;;12.90;;
19623;SDS011;9959;49.798;9.928;2023-02-22T17:28:33;24.40;;;13.18;;
19623;SDS011;9959;49.798;9.928;2023-02-22T17:31:00;27.17;;;13.95;;
19623;SDS011;9959;49.798;9.928;2023-02-22T17:33:28;29.50;;;13.73;;
19623;SDS011;9959;49.798;9.928;2023-02-22T17:35:56;28.80;;;14.45;;
19623;SDS011;9959;49.798;9.928;2023-02-22T17:38:24;38.33;;;19.02;;
19623;SDS011;9959;49.798;9.928;2023-02-22T17:40:52;43.38;;;20.77;;
19623;SDS011;9959;49.798;9.928;2023-02-22T17:43:22;26.73;;;15.15;;
19623;SDS011;9959;49.798;9.928;2023-02-22T17:45:50;49.45;;;21.80;;
19623;SDS011;9959;49.798;9.928;2023-02-22T17:50:55;26.27;;;15.23;;
19623;SDS011;9959;49.798;9.928;2023-02-22T17:53:22;29.42;;;15.68;;
19623;SDS011;9959;49.798;9.928;2023-02-22T17:56:00;26.02;;;15.60;;
19623;SDS011;9959;49.798;9.928;2023-02-22T17:58:31;30.92;;;16.83;;
19623;SDS011;9959;49.798;9.928;2023-02-22T18:00:58;25.30;;;15.07;;
19623;SDS011;9959;49.798;9.928;2023-02-22T18:03:26;31.20;;;15.57;;
19623;SDS011;9959;49.798;9.928;2023-02-22T18:05:58;31.23;;;16.10;;